sensor_id;sensor_type;location;lat;lon;timestamp;pressure;altitude;pressure_sealevel;temperature;humidity
54592;BME280;40488;48.558;18.150;2022-10-23T00:01:48;100039.97;;;8.95;88.52
54592;BME280;40488;48.558;18.150;2022-10-23T00:04:19;100041.69;;;8.95;87.95
54592;BME280;40488;48.558;18.150;2022-10-23T00:06:48;100036.59;;;8.98;88.38
54592;BME280;40488;48.558;18.150;2022-10-23T00:09:19;100045.13;;;9.01;88.80
54592;BME280;40488;48.558;18.150;2022-10-23T00:11:49;100046.88;;;9.05;88.08
54592;BME280;40488;48.558;18.150;2022-10-23T00:14:21;100047.78;;;9.10;88.05
54592;BME280;40488;48.558;18.150;2022-10-23T00:16:52;100045.22;;;9.10;88.75
54592;BME280;40488;48.558;18.150;2022-10-23T00:19:21;100050.28;;;9.07;88.78
54592;BME280;40488;48.558;18.150;2022-10-23T00:21:49;100046.81;;;9.01;88.34
54592;BME280;40488;48.558;18.150;2022-10-23T00:24:18;100043.38;;;8.94;88.48
54592;BME280;40488;48.558;18.150;2022-10-23T00:26:48;100058.63;;;8.94;88.26
54592;BME280;40488;48.558;18.150;2022-10-23T00:29:19;100039.03;;;8.87;88.62
54592;BME280;40488;48.558;18.150;2022-10-23T00:31:47;100058.53;;;8.88;88.18
54592;BME280;40488;48.558;18.150;2022-10-23T00:34:18;100063.56;;;8.82;88.70
54592;BME280;40488;48.558;18.150;2022-10-23T00:36:47;100064.50;;;8.87;88.76
54592;BME280;40488;48.558;18.150;2022-10-23T00:39:16;100067.06;;;8.90;88.99
54592;BME280;40488;48.558;18.150;2022-10-23T00:41:45;100069.59;;;8.89;88.49
54592;BME280;40488;48.558;18.150;2022-10-23T00:47:17;100060.38;;;8.97;88.75
54592;BME280;40488;48.558;18.150;2022-10-23T00:49:48;100061.28;;;9.02;88.42
54592;BME280;40488;48.558;18.150;2022-10-23T00:52:17;100068.97;;;9.08;89.31
54592;BME280;40488;48.558;18.150;2022-10-23T00:54:45;100063.88;;;9.06;89.08
54592;BME280;40488;48.558;18.150;2022-10-23T00:57:14;100066.50;;;9.15;88.68
54592;BME280;40488;48.558;18.150;2022-10-23T00:59:43;100070.78;;;9.16;88.71
54592;BME280;40488;48.558;18.150;2022-10-23T01:02:12;100080.97;;;9.19;89.82
54592;BME280;40488;48.558;18.150;2022-10-23T01:04:42;100067.38;;;9.17;89.46
54592;BME280;40488;48.558;18.150;2022-10-23T01:07:16;100076.00;;;9.30;89.98
54592;BME280;40488;48.558;18.150;2022-10-23T01:09:53;100076.88;;;9.32;90.03
54592;BME280;40488;48.558;18.150;2022-10-23T01:12:28;100079.47;;;9.36;89.83
54592;BME280;40488;48.558;18.150;2022-10-23T01:15:06;100079.47;;;9.36;89.31
54592;BME280;40488;48.558;18.150;2022-10-23T01:17:41;100079.47;;;9.36;89.62
54592;BME280;40488;48.558;18.150;2022-10-23T01:20:28;100087.97;;;9.38;89.89
54592;BME280;40488;48.558;18.150;2022-10-23T01:28:47;100089.78;;;9.49;90.48
54592;BME280;40488;48.558;18.150;2022-10-23T01:31:26;100094.88;;;9.49;89.69
54592;BME280;40488;48.558;18.150;2022-10-23T01:33:58;100099.06;;;9.40;89.82
54592;BME280;40488;48.558;18.150;2022-10-23T01:36:29;100075.88;;;9.16;90.03
54592;BME280;40488;48.558;18.150;2022-10-23T01:39:03;100084.47;;;9.27;90.13
54592;BME280;40488;48.558;18.150;2022-10-23T01:41:38;100082.78;;;9.29;89.88
54592;BME280;40488;48.558;18.150;2022-10-23T01:44:15;100069.06;;;9.17;89.59
54592;BME280;40488;48.558;18.150;2022-10-23T01:46:47;100081.94;;;9.27;89.97
54592;BME280;40488;48.558;18.150;2022-10-23T01:49:19;100076.84;;;9.27;90.50
54592;BME280;40488;48.558;18.150;2022-10-23T01:51:55;100070.88;;;9.25;89.87
54592;BME280;40488;48.558;18.150;2022-10-23T01:54:28;100074.28;;;9.27;89.83
54592;BME280;40488;48.558;18.150;2022-10-23T01:56:59;100069.06;;;9.17;90.33
54592;BME280;40488;48.558;18.150;2022-10-23T01:59:35;100071.59;;;9.14;89.68
54592;BME280;40488;48.558;18.150;2022-10-23T02:02:09;100073.28;;;9.13;90.12
54592;BME280;40488;48.558;18.150;2022-10-23T02:04:46;100071.50;;;9.08;89.52
54592;BME280;40488;48.558;18.150;2022-10-23T02:07:16;100074.06;;;9.08;89.83
54592;BME280;40488;48.558;18.150;2022-10-23T02:09:47;100075.75;;;9.07;90.04
54592;BME280;40488;48.558;18.150;2022-10-23T02:12:25;100080.00;;;9.08;89.54
54592;BME280;40488;48.558;18.150;2022-10-23T02:14:59;100079.97;;;9.04;90.19
54592;BME280;40488;48.558;18.150;2022-10-23T02:17:35;100086.69;;;9.00;89.39
54592;BME280;40488;48.558;18.150;2022-10-23T02:20:16;100081.59;;;8.97;90.04
54592;BME280;40488;48.558;18.150;2022-10-23T02:22:54;100082.47;;;9.02;89.81
54592;BME280;40488;48.558;18.150;2022-10-23T02:25:30;100088.47;;;9.04;89.76
54592;BME280;40488;48.558;18.150;2022-10-23T02:28:05;100088.38;;;8.97;89.60
54592;BME280;40488;48.558;18.150;2022-10-23T02:30:45;100094.97;;;8.83;89.24
54592;BME280;40488;48.558;18.150;2022-10-23T02:33:16;100091.34;;;8.65;89.67
54592;BME280;40488;48.558;18.150;2022-10-23T02:35:46;100085.34;;;8.59;89.55
54592;BME280;40488;48.558;18.150;2022-10-23T02:38:33;100102.16;;;8.51;89.81
54592;BME280;40488;48.558;18.150;2022-10-23T02:41:12;100101.00;;;8.31;90.23
54592;BME280;40488;48.558;18.150;2022-10-23T02:43:51;100097.44;;;8.20;90.32
54592;BME280;40488;48.558;18.150;2022-10-23T02:46:30;100104.31;;;8.25;90.33
54592;BME280;40488;48.558;18.150;2022-10-23T02:49:09;100091.72;;;8.33;89.84
54592;BME280;40488;48.558;18.150;2022-10-23T02:51:44;100098.53;;;8.34;90.35
54592;BME280;40488;48.558;18.150;2022-10-23T02:54:30;100096.72;;;8.27;90.11
54592;BME280;40488;48.558;18.150;2022-10-23T02:57:03;100100.19;;;8.32;91.16
54592;BME280;40488;48.558;18.150;2022-10-23T02:59:37;100087.44;;;8.30;90.41
54592;BME280;40488;48.558;18.150;2022-10-23T03:02:17;100106.94;;;8.30;90.43
54592;BME280;40488;48.558;18.150;2022-10-23T03:04:50;100106.09;;;8.31;90.90
54592;BME280;40488;48.558;18.150;2022-10-23T03:07:20;100104.34;;;8.27;90.18
54592;BME280;40488;48.558;18.150;2022-10-23T03:09:49;100108.63;;;8.28;90.71
54592;BME280;40488;48.558;18.150;2022-10-23T03:12:18;100108.63;;;8.28;90.32
54592;BME280;40488;48.558;18.150;2022-10-23T03:14:46;100111.19;;;8.31;90.91
54592;BME280;40488;48.558;18.150;2022-10-23T03:17:16;100112.97;;;8.35;91.54
54592;BME280;40488;48.558;18.150;2022-10-23T03:19:46;100115.59;;;8.41;90.85
54592;BME280;40488;48.558;18.150;2022-10-23T03:22:15;100103.75;;;8.43;91.07
54592;BME280;40488;48.558;18.150;2022-10-23T03:24:44;100108.88;;;8.46;91.28
54592;BME280;40488;48.558;18.150;2022-10-23T03:27:13;100100.38;;;8.44;91.21
54592;BME280;40488;48.558;18.150;2022-10-23T03:29:42;100100.44;;;8.50;91.12
54592;BME280;40488;48.558;18.150;2022-10-23T03:32:13;100100.56;;;8.56;91.22
54592;BME280;40488;48.558;18.150;2022-10-23T03:34:45;100097.91;;;8.50;90.94
54592;BME280;40488;48.558;18.150;2022-10-23T03:37:14;100103.66;;;8.37;91.05
54592;BME280;40488;48.558;18.150;2022-10-23T03:39:43;100102.84;;;8.39;91.25
54592;BME280;40488;48.558;18.150;2022-10-23T03:42:11;100094.41;;;8.42;91.15
54592;BME280;40488;48.558;18.150;2022-10-23T03:44:40;100095.19;;;8.38;90.84
54592;BME280;40488;48.558;18.150;2022-10-23T03:47:09;100101.94;;;8.36;90.70
54592;BME280;40488;48.558;18.150;2022-10-23T03:49:38;100095.97;;;8.34;90.72
54592;BME280;40488;48.558;18.150;2022-10-23T03:52:08;100104.44;;;8.33;90.65
54592;BME280;40488;48.558;18.150;2022-10-23T03:54:37;100101.88;;;8.30;90.33
54592;BME280;40488;48.558;18.150;2022-10-23T03:57:06;100104.47;;;8.34;90.87
54592;BME280;40488;48.558;18.150;2022-10-23T03:59:35;100105.22;;;8.27;90.15
54592;BME280;40488;48.558;18.150;2022-10-23T04:02:05;100106.72;;;8.18;89.92
54592;BME280;40488;48.558;18.150;2022-10-23T04:04:34;100110.00;;;8.10;90.13
54592;BME280;40488;48.558;18.150;2022-10-23T04:07:03;100118.38;;;8.03;89.75
54592;BME280;40488;48.558;18.150;2022-10-23T04:09:33;100114.97;;;8.03;90.02
54592;BME280;40488;48.558;18.150;2022-10-23T04:12:03;100116.69;;;8.05;89.67
54592;BME280;40488;48.558;18.150;2022-10-23T04:14:32;100118.38;;;8.03;89.63
54592;BME280;40488;48.558;18.150;2022-10-23T04:17:02;100115.72;;;7.97;90.08
54592;BME280;40488;48.558;18.150;2022-10-23T04:19:31;100111.47;;;7.96;89.73
54592;BME280;40488;48.558;18.150;2022-10-23T04:21:59;100122.44;;;7.94;89.66
54592;BME280;40488;48.558;18.150;2022-10-23T04:24:28;100119.84;;;7.92;89.42
54592;BME280;40488;48.558;18.150;2022-10-23T04:26:58;100124.19;;;7.98;88.97
54592;BME280;40488;48.558;18.150;2022-10-23T04:29:29;100125.00;;;7.95;89.24
54592;BME280;40488;48.558;18.150;2022-10-23T04:31:58;100128.34;;;7.94;88.83
54592;BME280;40488;48.558;18.150;2022-10-23T04:34:27;100132.44;;;7.85;88.55
54592;BME280;40488;48.558;18.150;2022-10-23T04:36:56;100138.38;;;7.85;88.75
54592;BME280;40488;48.558;18.150;2022-10-23T04:39:24;100138.44;;;7.88;88.82
54592;BME280;40488;48.558;18.150;2022-10-23T04:41:53;100141.91;;;7.93;89.48
54592;BME280;40488;48.558;18.150;2022-10-23T04:44:26;100143.66;;;7.97;88.82
54592;BME280;40488;48.558;18.150;2022-10-23T04:46:55;100147.19;;;8.05;89.05
54592;BME280;40488;48.558;18.150;2022-10-23T04:49:24;100137.94;;;8.09;88.88
54592;BME280;40488;48.558;18.150;2022-10-23T04:52:03;100142.19;;;8.11;88.95
54592;BME280;40488;48.558;18.150;2022-10-23T04:54:35;100135.44;;;8.13;89.71
54592;BME280;40488;48.558;18.150;2022-10-23T04:57:16;100127.94;;;8.18;88.73
54592;BME280;40488;48.558;18.150;2022-10-23T04:59:57;100128.81;;;8.22;88.70
54592;BME280;40488;48.558;18.150;2022-10-23T05:02:26;100130.53;;;8.23;89.13
54592;BME280;40488;48.558;18.150;2022-10-23T05:04:55;100124.59;;;8.24;89.20
54592;BME280;40488;48.558;18.150;2022-10-23T05:07:49;100129.03;;;8.34;89.34
54592;BME280;40488;48.558;18.150;2022-10-23T05:10:41;100139.16;;;8.31;88.96
54592;BME280;40488;48.558;18.150;2022-10-23T05:13:12;100125.69;;;8.35;89.35
54592;BME280;40488;48.558;18.150;2022-10-23T05:15:42;100135.00;;;8.36;89.54
54592;BME280;40488;48.558;18.150;2022-10-23T05:18:14;100130.75;;;8.35;89.66
54592;BME280;40488;48.558;18.150;2022-10-23T05:20:47;100129.16;;;8.43;90.75
54592;BME280;40488;48.558;18.150;2022-10-23T05:23:18;100132.69;;;8.51;90.56
54592;BME280;40488;48.558;18.150;2022-10-23T05:25:54;100128.53;;;8.56;90.01
54592;BME280;40488;48.558;18.150;2022-10-23T05:28:23;100132.00;;;8.61;89.93
54592;BME280;40488;48.558;18.150;2022-10-23T05:30:53;100141.44;;;8.68;90.34
54592;BME280;40488;48.558;18.150;2022-10-23T05:33:26;100139.81;;;8.73;90.58
54592;BME280;40488;48.558;18.150;2022-10-23T05:35:55;100153.47;;;8.78;90.56
54592;BME280;40488;48.558;18.150;2022-10-23T05:38:27;100154.34;;;8.82;90.80
54592;BME280;40488;48.558;18.150;2022-10-23T05:41:01;100152.72;;;8.87;90.64
54592;BME280;40488;48.558;18.150;2022-10-23T05:43:30;100151.03;;;8.90;90.47
54592;BME280;40488;48.558;18.150;2022-10-23T05:46:09;100157.03;;;8.92;90.57
54592;BME280;40488;48.558;18.150;2022-10-23T05:49:04;100162.19;;;8.98;91.19
54592;BME280;40488;48.558;18.150;2022-10-23T05:51:48;100161.41;;;9.02;91.02
54592;BME280;40488;48.558;18.150;2022-10-23T05:54:40;100157.16;;;9.01;90.86
54592;BME280;40488;48.558;18.150;2022-10-23T05:57:35;100162.16;;;8.95;90.92
54592;BME280;40488;48.558;18.150;2022-10-23T06:00:08;100167.97;;;8.87;90.58
54592;BME280;40488;48.558;18.150;2022-10-23T06:02:41;100165.44;;;8.85;91.11
54592;BME280;40488;48.558;18.150;2022-10-23T06:05:24;100165.38;;;8.84;91.02
54592;BME280;40488;48.558;18.150;2022-10-23T06:08:04;100162.78;;;8.79;91.16
54592;BME280;40488;48.558;18.150;2022-10-23T06:10:33;100171.34;;;8.86;90.51
54592;BME280;40488;48.558;18.150;2022-10-23T06:13:06;100170.53;;;8.85;90.26
54592;BME280;40488;48.558;18.150;2022-10-23T06:15:36;100171.34;;;8.84;90.78
54592;BME280;40488;48.558;18.150;2022-10-23T06:18:11;100169.72;;;8.88;90.48
54592;BME280;40488;48.558;18.150;2022-10-23T06:20:52;100180.78;;;8.91;91.02
54592;BME280;40488;48.558;18.150;2022-10-23T06:23:25;100175.63;;;8.88;90.41
54592;BME280;40488;48.558;18.150;2022-10-23T06:26:06;100184.06;;;8.84;90.67
54592;BME280;40488;48.558;18.150;2022-10-23T06:28:46;100183.25;;;8.85;91.22
54592;BME280;40488;48.558;18.150;2022-10-23T06:31:16;100170.47;;;8.82;90.92
54592;BME280;40488;48.558;18.150;2022-10-23T06:33:51;100179.78;;;8.83;90.72
54592;BME280;40488;48.558;18.150;2022-10-23T06:36:20;100182.41;;;8.86;90.86
54592;BME280;40488;48.558;18.150;2022-10-23T06:38:49;100182.44;;;8.89;91.76
54592;BME280;40488;48.558;18.150;2022-10-23T06:41:22;100178.22;;;8.93;91.48
54592;BME280;40488;48.558;18.150;2022-10-23T06:43:54;100182.56;;;8.98;91.94
54592;BME280;40488;48.558;18.150;2022-10-23T06:46:40;100186.84;;;9.01;91.69
54592;BME280;40488;48.558;18.150;2022-10-23T06:49:35;100196.31;;;9.09;91.79
54592;BME280;40488;48.558;18.150;2022-10-23T06:52:05;100204.03;;;9.17;92.17
54592;BME280;40488;48.558;18.150;2022-10-23T06:54:50;100196.50;;;9.24;91.72
54592;BME280;40488;48.558;18.150;2022-10-23T06:57:24;100194.00;;;9.29;92.04
54592;BME280;40488;48.558;18.150;2022-10-23T06:59:53;100191.50;;;9.33;92.40
54592;BME280;40488;48.558;18.150;2022-10-23T07:02:22;100190.78;;;9.40;92.97
54592;BME280;40488;48.558;18.150;2022-10-23T07:04:53;100187.41;;;9.46;93.02
54592;BME280;40488;48.558;18.150;2022-10-23T07:07:22;100186.69;;;9.55;92.98
54592;BME280;40488;48.558;18.150;2022-10-23T07:09:52;100189.34;;;9.65;92.62
54592;BME280;40488;48.558;18.150;2022-10-23T07:12:21;100193.66;;;9.71;92.71
54592;BME280;40488;48.558;18.150;2022-10-23T07:15:10;100192.03;;;9.76;93.01
54592;BME280;40488;48.558;18.150;2022-10-23T07:17:39;100197.22;;;9.85;93.25
54592;BME280;40488;48.558;18.150;2022-10-23T07:20:10;100202.41;;;9.94;93.67
54592;BME280;40488;48.558;18.150;2022-10-23T07:22:38;100197.38;;;10.03;93.88
54592;BME280;40488;48.558;18.150;2022-10-23T07:25:12;100203.41;;;10.11;93.40
54592;BME280;40488;48.558;18.150;2022-10-23T07:27:41;100197.56;;;10.18;93.84
54592;BME280;40488;48.558;18.150;2022-10-23T07:30:12;100195.91;;;10.23;93.97
54592;BME280;40488;48.558;18.150;2022-10-23T07:32:46;100198.50;;;10.26;94.11
54592;BME280;40488;48.558;18.150;2022-10-23T07:35:27;100197.66;;;10.30;94.06
54592;BME280;40488;48.558;18.150;2022-10-23T07:38:07;100213.06;;;10.36;94.40
54592;BME280;40488;48.558;18.150;2022-10-23T07:40:40;100201.16;;;10.38;94.76
54592;BME280;40488;48.558;18.150;2022-10-23T07:43:09;100213.13;;;10.45;94.41
54592;BME280;40488;48.558;18.150;2022-10-23T07:45:38;100203.81;;;10.50;94.39
54592;BME280;40488;48.558;18.150;2022-10-23T07:48:23;100204.69;;;10.58;95.13
54592;BME280;40488;48.558;18.150;2022-10-23T07:51:06;100192.88;;;10.66;95.10
54592;BME280;40488;48.558;18.150;2022-10-23T07:53:50;100186.94;;;10.75;95.15
54592;BME280;40488;48.558;18.150;2022-10-23T07:56:31;100191.28;;;10.84;95.25
54592;BME280;40488;48.558;18.150;2022-10-23T07:59:12;100191.31;;;10.87;95.30
54592;BME280;40488;48.558;18.150;2022-10-23T08:01:48;100201.53;;;10.90;95.26
54592;BME280;40488;48.558;18.150;2022-10-23T08:04:25;100199.91;;;11.01;95.37
54592;BME280;40488;48.558;18.150;2022-10-23T08:07:02;100204.16;;;11.06;95.43
54592;BME280;40488;48.558;18.150;2022-10-23T08:09:37;100206.75;;;11.08;95.37
54592;BME280;40488;48.558;18.150;2022-10-23T08:12:08;100201.66;;;11.11;95.69
54592;BME280;40488;48.558;18.150;2022-10-23T08:14:37;100208.50;;;11.16;95.69
54592;BME280;40488;48.558;18.150;2022-10-23T08:17:06;100194.88;;;11.19;95.63
54592;BME280;40488;48.558;18.150;2022-10-23T08:19:56;100193.22;;;11.27;95.68
54592;BME280;40488;48.558;18.150;2022-10-23T08:22:31;100193.25;;;11.33;95.81
54592;BME280;40488;48.558;18.150;2022-10-23T08:25:02;100195.00;;;11.43;95.72
54592;BME280;40488;48.558;18.150;2022-10-23T08:27:31;100189.03;;;11.47;95.78
54592;BME280;40488;48.558;18.150;2022-10-23T08:29:59;100188.22;;;11.51;95.85
54592;BME280;40488;48.558;18.150;2022-10-23T08:32:28;100189.06;;;11.55;95.70
54592;BME280;40488;48.558;18.150;2022-10-23T08:34:59;100192.47;;;11.55;95.81
54592;BME280;40488;48.558;18.150;2022-10-23T08:37:31;100193.34;;;11.60;95.88
54592;BME280;40488;48.558;18.150;2022-10-23T08:40:00;100199.38;;;11.70;95.73
54592;BME280;40488;48.558;18.150;2022-10-23T08:42:40;100199.38;;;11.76;95.70
54592;BME280;40488;48.558;18.150;2022-10-23T08:45:25;100197.72;;;11.88;96.03
54592;BME280;40488;48.558;18.150;2022-10-23T08:48:11;100203.72;;;11.99;95.76
54592;BME280;40488;48.558;18.150;2022-10-23T08:50:55;100210.56;;;12.03;95.59
54592;BME280;40488;48.558;18.150;2022-10-23T08:53:31;100201.16;;;12.07;95.61
54592;BME280;40488;48.558;18.150;2022-10-23T08:56:07;100191.81;;;12.14;95.63
54592;BME280;40488;48.558;18.150;2022-10-23T08:58:44;100196.94;;;12.26;95.50
54592;BME280;40488;48.558;18.150;2022-10-23T09:01:26;100188.38;;;12.36;95.59
54592;BME280;40488;48.558;18.150;2022-10-23T09:03:58;100181.56;;;12.41;95.08
54592;BME280;40488;48.558;18.150;2022-10-23T09:06:33;100190.13;;;12.47;95.33
54592;BME280;40488;48.558;18.150;2022-10-23T09:09:25;100183.28;;;12.54;95.02
54592;BME280;40488;48.558;18.150;2022-10-23T09:12:03;100188.41;;;12.69;95.07
54592;BME280;40488;48.558;18.150;2022-10-23T09:17:32;100181.53;;;13.07;95.17
54592;BME280;40488;48.558;18.150;2022-10-23T09:20:11;100190.88;;;13.17;94.48
54592;BME280;40488;48.558;18.150;2022-10-23T09:22:41;100191.72;;;13.25;94.35
54592;BME280;40488;48.558;18.150;2022-10-23T09:25:18;100195.13;;;13.29;94.42
54592;BME280;40488;48.558;18.150;2022-10-23T09:27:49;100186.56;;;13.36;94.13
54592;BME280;40488;48.558;18.150;2022-10-23T09:30:30;100186.53;;;13.40;93.81
54592;BME280;40488;48.558;18.150;2022-10-23T09:33:11;100185.66;;;13.44;93.67
54592;BME280;40488;48.558;18.150;2022-10-23T09:35:52;100181.31;;;13.59;93.67
54592;BME280;40488;48.558;18.150;2022-10-23T09:38:28;100183.78;;;13.78;93.14
54592;BME280;40488;48.558;18.150;2022-10-23T09:41:01;100172.56;;;13.93;92.51
54592;BME280;40488;48.558;18.150;2022-10-23T09:43:30;100187.09;;;13.98;92.48
54592;BME280;40488;48.558;18.150;2022-10-23T09:46:04;100185.34;;;14.00;92.25
54592;BME280;40488;48.558;18.150;2022-10-23T09:48:35;100188.75;;;14.02;91.58
54592;BME280;40488;48.558;18.150;2022-10-23T09:51:16;100193.03;;;14.02;91.25
54592;BME280;40488;48.558;18.150;2022-10-23T09:53:49;100198.19;;;13.99;90.83
54592;BME280;40488;48.558;18.150;2022-10-23T09:56:26;100188.78;;;13.96;90.79
54592;BME280;40488;48.558;18.150;2022-10-23T09:58:57;100187.94;;;13.96;90.32
54592;BME280;40488;48.558;18.150;2022-10-23T10:01:28;100190.56;;;13.91;89.89
54592;BME280;40488;48.558;18.150;2022-10-23T10:04:18;100194.81;;;13.92;89.70
54592;BME280;40488;48.558;18.150;2022-10-23T10:06:59;100187.94;;;13.96;89.58
54592;BME280;40488;48.558;18.150;2022-10-23T10:09:29;100183.66;;;14.01;89.49
54592;BME280;40488;48.558;18.150;2022-10-23T10:12:13;100181.88;;;14.06;89.34
54592;BME280;40488;48.558;18.150;2022-10-23T10:14:57;100185.25;;;14.11;89.52
54592;BME280;40488;48.558;18.150;2022-10-23T10:17:37;100189.50;;;14.18;89.10
54592;BME280;40488;48.558;18.150;2022-10-23T10:20:36;100189.47;;;14.24;88.91
54592;BME280;40488;48.558;18.150;2022-10-23T10:23:15;100178.31;;;14.30;88.32
54592;BME280;40488;48.558;18.150;2022-10-23T10:25:52;100174.00;;;14.36;87.94
54592;BME280;40488;48.558;18.150;2022-10-23T10:28:32;100165.38;;;14.40;87.76
54592;BME280;40488;48.558;18.150;2022-10-23T10:31:15;100163.59;;;14.47;87.88
54592;BME280;40488;48.558;18.150;2022-10-23T10:33:56;100157.59;;;14.49;87.44
54592;BME280;40488;48.558;18.150;2022-10-23T10:36:37;100143.91;;;14.50;87.22
54592;BME280;40488;48.558;18.150;2022-10-23T10:39:16;100142.88;;;14.68;86.63
54592;BME280;40488;48.558;18.150;2022-10-23T10:41:54;100135.72;;;14.96;86.28
54592;BME280;40488;48.558;18.150;2022-10-23T10:44:49;100130.16;;;15.32;85.75
54592;BME280;40488;48.558;18.150;2022-10-23T10:47:22;100137.66;;;15.49;84.70
54592;BME280;40488;48.558;18.150;2022-10-23T10:50:01;100132.31;;;15.64;83.51
54592;BME280;40488;48.558;18.150;2022-10-23T10:52:56;100120.00;;;15.85;82.87
54592;BME280;40488;48.558;18.150;2022-10-23T10:55:32;100115.44;;;16.02;82.11
54592;BME280;40488;48.558;18.150;2022-10-23T10:58:05;100109.31;;;16.08;80.87
54592;BME280;40488;48.558;18.150;2022-10-23T11:00:40;100106.59;;;16.19;80.61
54592;BME280;40488;48.558;18.150;2022-10-23T11:03:23;100102.25;;;16.21;80.18
54592;BME280;40488;48.558;18.150;2022-10-23T11:05:56;100092.13;;;16.12;79.64
54592;BME280;40488;48.558;18.150;2022-10-23T11:08:33;100092.81;;;16.20;79.96
54592;BME280;40488;48.558;18.150;2022-10-23T11:11:27;100082.38;;;16.29;79.49
54592;BME280;40488;48.558;18.150;2022-10-23T11:13:58;100078.72;;;16.39;79.12
54592;BME280;40488;48.558;18.150;2022-10-23T11:16:30;100087.19;;;16.47;78.80
54592;BME280;40488;48.558;18.150;2022-10-23T11:19:04;100073.38;;;16.51;78.30
54592;BME280;40488;48.558;18.150;2022-10-23T11:21:43;100071.31;;;16.71;78.11
54592;BME280;40488;48.558;18.150;2022-10-23T11:30:17;100072.09;;;17.17;76.67
54592;BME280;40488;48.558;18.150;2022-10-23T11:33:26;100070.09;;;17.28;75.89
54592;BME280;40488;48.558;18.150;2022-10-23T11:36:05;100063.44;;;17.18;75.32
54592;BME280;40488;48.558;18.150;2022-10-23T11:38:42;100058.38;;;17.15;74.52
54592;BME280;40488;48.558;18.150;2022-10-23T11:41:18;100054.94;;;17.13;74.82
54592;BME280;40488;48.558;18.150;2022-10-23T11:43:55;100052.03;;;17.28;74.40
54592;BME280;40488;48.558;18.150;2022-10-23T11:46:30;100039.78;;;17.38;73.87
54592;BME280;40488;48.558;18.150;2022-10-23T11:49:01;100033.50;;;17.50;73.73
54592;BME280;40488;48.558;18.150;2022-10-23T11:51:33;100026.47;;;17.58;73.25
54592;BME280;40488;48.558;18.150;2022-10-23T11:54:21;100025.44;;;17.65;73.06
54592;BME280;40488;48.558;18.150;2022-10-23T11:57:07;100008.91;;;17.72;72.72
54592;BME280;40488;48.558;18.150;2022-10-23T11:59:49;99998.53;;;17.73;72.62
54592;BME280;40488;48.558;18.150;2022-10-23T12:02:29;99993.13;;;17.84;72.57
54592;BME280;40488;48.558;18.150;2022-10-23T12:05:03;99990.53;;;17.84;72.31
54592;BME280;40488;48.558;18.150;2022-10-23T12:07:35;99983.63;;;17.84;72.25
54592;BME280;40488;48.558;18.150;2022-10-23T12:10:16;99979.47;;;17.79;72.18
54592;BME280;40488;48.558;18.150;2022-10-23T12:12:55;99977.00;;;17.74;71.97
54592;BME280;40488;48.558;18.150;2022-10-23T12:15:24;99979.22;;;17.88;72.33
54592;BME280;40488;48.558;18.150;2022-10-23T12:17:54;99974.91;;;17.88;71.99
54592;BME280;40488;48.558;18.150;2022-10-23T12:20:38;99976.38;;;17.98;72.16
54592;BME280;40488;48.558;18.150;2022-10-23T12:23:26;99965.78;;;18.09;71.62
54592;BME280;40488;48.558;18.150;2022-10-23T12:26:13;99957.44;;;17.99;71.06
54592;BME280;40488;48.558;18.150;2022-10-23T12:28:52;99949.69;;;17.98;71.40
54592;BME280;40488;48.558;18.150;2022-10-23T12:31:35;99948.81;;;17.99;71.36
54592;BME280;40488;48.558;18.150;2022-10-23T12:34:24;99956.47;;;18.02;71.14
54592;BME280;40488;48.558;18.150;2022-10-23T12:37:15;99953.47;;;18.19;71.32
54592;BME280;40488;48.558;18.150;2022-10-23T12:39:53;99960.25;;;18.21;70.97
54592;BME280;40488;48.558;18.150;2022-10-23T12:42:24;99953.28;;;18.25;71.08
54592;BME280;40488;48.558;18.150;2022-10-23T12:44:58;99954.22;;;18.22;70.98
54592;BME280;40488;48.558;18.150;2022-10-23T12:47:28;99948.97;;;18.24;70.85
54592;BME280;40488;48.558;18.150;2022-10-23T12:49:57;99940.34;;;18.25;70.48
54592;BME280;40488;48.558;18.150;2022-10-23T12:52:27;99935.84;;;18.33;70.86
54592;BME280;40488;48.558;18.150;2022-10-23T12:54:56;99938.38;;;18.34;70.56
54592;BME280;40488;48.558;18.150;2022-10-23T12:57:26;99935.72;;;18.36;70.51
54592;BME280;40488;48.558;18.150;2022-10-23T12:59:57;99931.31;;;18.39;70.55
54592;BME280;40488;48.558;18.150;2022-10-23T13:02:31;99920.66;;;18.51;70.49
54592;BME280;40488;48.558;18.150;2022-10-23T13:05:05;99923.88;;;18.59;70.23
54592;BME280;40488;48.558;18.150;2022-10-23T13:07:42;99921.16;;;18.64;70.01
54592;BME280;40488;48.558;18.150;2022-10-23T13:10:15;99922.25;;;18.55;70.12
54592;BME280;40488;48.558;18.150;2022-10-23T13:12:54;99910.41;;;18.48;70.57
54592;BME280;40488;48.558;18.150;2022-10-23T13:15:23;99913.72;;;18.53;70.45
54592;BME280;40488;48.558;18.150;2022-10-23T13:18:01;99909.06;;;18.35;70.77
54592;BME280;40488;48.558;18.150;2022-10-23T13:20:32;99895.56;;;18.24;71.04
54592;BME280;40488;48.558;18.150;2022-10-23T13:23:14;99906.84;;;18.22;71.87
54592;BME280;40488;48.558;18.150;2022-10-23T13:25:52;99896.63;;;18.17;72.86
54592;BME280;40488;48.558;18.150;2022-10-23T13:28:24;99909.63;;;18.14;73.21
54592;BME280;40488;48.558;18.150;2022-10-23T13:31:00;99903.88;;;18.04;73.24
54592;BME280;40488;48.558;18.150;2022-10-23T13:33:34;99894.66;;;17.96;73.18
54592;BME280;40488;48.558;18.150;2022-10-23T13:36:17;99894.72;;;17.94;73.37
54592;BME280;40488;48.558;18.150;2022-10-23T13:39:01;99888.03;;;17.86;73.59
54592;BME280;40488;48.558;18.150;2022-10-23T13:41:35;99881.34;;;17.79;73.79
54592;BME280;40488;48.558;18.150;2022-10-23T13:44:08;99884.91;;;17.75;73.91
54592;BME280;40488;48.558;18.150;2022-10-23T13:46:40;99890.06;;;17.75;74.17